sensor_id;sensor_type;location;lat;lon;timestamp;pressure;altitude;pressure_sealevel;temperature;humidity
77250;BME280;66287;42.658;27.568;2023-07-28T00:01:44;67877.22;;;-144.13;100.00
77250;BME280;66287;42.658;27.568;2023-07-28T00:04:10;67877.22;;;-144.13;100.00
77250;BME280;66287;42.658;27.568;2023-07-28T00:06:35;67877.22;;;-144.13;100.00
77250;BME280;66287;42.658;27.568;2023-07-28T00:09:01;67877.22;;;-144.13;100.00
77250;BME280;66287;42.658;27.568;2023-07-28T00:11:27;67877.22;;;-144.13;100.00
77250;BME280;66287;42.658;27.568;2023-07-28T00:13:52;67877.22;;;-144.13;100.00
77250;BME280;66287;42.658;27.568;2023-07-28T00:16:18;67877.22;;;-144.13;100.00
77250;BME280;66287;42.658;27.568;2023-07-28T00:18:44;67877.22;;;-144.13;100.00
77250;BME280;66287;42.658;27.568;2023-07-28T00:21:09;67877.22;;;-144.13;100.00
77250;BME280;66287;42.658;27.568;2023-07-28T00:23:34;67877.22;;;-144.13;100.00
77250;BME280;66287;42.658;27.568;2023-07-28T00:26:00;67877.22;;;-144.13;100.00
77250;BME280;66287;42.658;27.568;2023-07-28T00:28:25;67877.22;;;-144.13;100.00
77250;BME280;66287;42.658;27.568;2023-07-28T00:30:52;67877.22;;;-144.13;100.00
77250;BME280;66287;42.658;27.568;2023-07-28T00:33:17;67877.22;;;-144.13;100.00
77250;BME280;66287;42.658;27.568;2023-07-28T00:35:43;67877.22;;;-144.13;100.00
77250;BME280;66287;42.658;27.568;2023-07-28T00:38:09;67877.22;;;-144.13;100.00
77250;BME280;66287;42.658;27.568;2023-07-28T00:40:35;67877.22;;;-144.13;100.00
77250;BME280;66287;42.658;27.568;2023-07-28T00:43:00;67877.22;;;-144.13;100.00
77250;BME280;66287;42.658;27.568;2023-07-28T00:45:26;67877.22;;;-144.13;100.00
77250;BME280;66287;42.658;27.568;2023-07-28T00:47:51;67877.22;;;-144.13;100.00
77250;BME280;66287;42.658;27.568;2023-07-28T00:50:17;67877.22;;;-144.13;100.00
77250;BME280;66287;42.658;27.568;2023-07-28T00:52:42;67877.22;;;-144.13;100.00
77250;BME280;66287;42.658;27.568;2023-07-28T00:55:08;67877.22;;;-144.13;100.00
77250;BME280;66287;42.658;27.568;2023-07-28T00:57:33;67877.22;;;-144.13;100.00
77250;BME280;66287;42.658;27.568;2023-07-28T01:00:00;67877.22;;;-144.13;100.00
77250;BME280;66287;42.658;27.568;2023-07-28T01:02:25;67877.22;;;-144.13;100.00
77250;BME280;66287;42.658;27.568;2023-07-28T01:04:51;67877.22;;;-144.13;100.00
77250;BME280;66287;42.658;27.568;2023-07-28T01:07:22;67877.22;;;-144.13;100.00
77250;BME280;66287;42.658;27.568;2023-07-28T01:09:56;67877.22;;;-144.13;100.00
77250;BME280;66287;42.658;27.568;2023-07-28T01:12:23;67877.22;;;-144.13;100.00
77250;BME280;66287;42.658;27.568;2023-07-28T01:14:49;67877.22;;;-144.13;100.00
77250;BME280;66287;42.658;27.568;2023-07-28T01:17:14;67877.22;;;-144.13;100.00
77250;BME280;66287;42.658;27.568;2023-07-28T01:19:40;67877.22;;;-144.13;100.00
77250;BME280;66287;42.658;27.568;2023-07-28T01:22:11;67877.22;;;-144.13;100.00
77250;BME280;66287;42.658;27.568;2023-07-28T01:24:49;67877.22;;;-144.13;100.00
77250;BME280;66287;42.658;27.568;2023-07-28T01:27:16;67877.22;;;-144.13;100.00
77250;BME280;66287;42.658;27.568;2023-07-28T01:29:42;67877.22;;;-144.13;100.00
77250;BME280;66287;42.658;27.568;2023-07-28T01:32:07;67877.22;;;-144.13;100.00
77250;BME280;66287;42.658;27.568;2023-07-28T01:34:33;67877.22;;;-144.13;100.00
77250;BME280;66287;42.658;27.568;2023-07-28T01:36:59;67877.22;;;-144.13;100.00
77250;BME280;66287;42.658;27.568;2023-07-28T01:39:24;67877.22;;;-144.13;100.00
77250;BME280;66287;42.658;27.568;2023-07-28T01:41:50;67877.22;;;-144.13;100.00
77250;BME280;66287;42.658;27.568;2023-07-28T01:44:15;67877.22;;;-144.13;100.00
77250;BME280;66287;42.658;27.568;2023-07-28T01:46:41;67877.22;;;-144.13;100.00
77250;BME280;66287;42.658;27.568;2023-07-28T01:49:06;67877.22;;;-144.13;100.00
77250;BME280;66287;42.658;27.568;2023-07-28T01:51:31;67877.22;;;-144.13;100.00
77250;BME280;66287;42.658;27.568;2023-07-28T01:53:57;67877.22;;;-144.13;100.00
77250;BME280;66287;42.658;27.568;2023-07-28T01:56:22;67877.22;;;-144.13;100.00
77250;BME280;66287;42.658;27.568;2023-07-28T01:58:48;67877.22;;;-144.13;100.00
77250;BME280;66287;42.658;27.568;2023-07-28T02:01:13;67877.22;;;-144.13;100.00
77250;BME280;66287;42.658;27.568;2023-07-28T02:03:38;67877.22;;;-144.13;100.00
77250;BME280;66287;42.658;27.568;2023-07-28T02:06:04;67877.22;;;-144.13;100.00
77250;BME280;66287;42.658;27.568;2023-07-28T02:08:29;67877.22;;;-144.13;100.00
77250;BME280;66287;42.658;27.568;2023-07-28T02:10:55;67877.22;;;-144.13;100.00
77250;BME280;66287;42.658;27.568;2023-07-28T02:13:20;67877.22;;;-144.13;100.00
77250;BME280;66287;42.658;27.568;2023-07-28T02:15:46;67877.22;;;-144.13;100.00
77250;BME280;66287;42.658;27.568;2023-07-28T02:18:11;67877.22;;;-144.13;100.00
77250;BME280;66287;42.658;27.568;2023-07-28T02:20:36;67877.22;;;-144.13;100.00
77250;BME280;66287;42.658;27.568;2023-07-28T02:23:04;67877.22;;;-144.13;100.00
77250;BME280;66287;42.658;27.568;2023-07-28T02:25:29;67877.22;;;-144.13;100.00
77250;BME280;66287;42.658;27.568;2023-07-28T02:27:54;67877.22;;;-144.13;100.00
77250;BME280;66287;42.658;27.568;2023-07-28T02:30:20;67877.22;;;-144.13;100.00
77250;BME280;66287;42.658;27.568;2023-07-28T02:32:45;67877.22;;;-144.13;100.00
77250;BME280;66287;42.658;27.568;2023-07-28T02:35:11;67877.22;;;-144.13;100.00
77250;BME280;66287;42.658;27.568;2023-07-28T02:37:36;67877.22;;;-144.13;100.00
77250;BME280;66287;42.658;27.568;2023-07-28T02:40:02;67877.22;;;-144.13;100.00
77250;BME280;66287;42.658;27.568;2023-07-28T02:42:30;67877.22;;;-144.13;100.00
77250;BME280;66287;42.658;27.568;2023-07-28T02:44:55;67877.22;;;-144.13;100.00
77250;BME280;66287;42.658;27.568;2023-07-28T02:47:21;67877.22;;;-144.13;100.00
77250;BME280;66287;42.658;27.568;2023-07-28T02:49:47;67877.22;;;-144.13;100.00
77250;BME280;66287;42.658;27.568;2023-07-28T02:52:12;67877.22;;;-144.13;100.00
77250;BME280;66287;42.658;27.568;2023-07-28T02:54:38;67877.22;;;-144.13;100.00
77250;BME280;66287;42.658;27.568;2023-07-28T02:57:04;67877.22;;;-144.13;100.00
77250;BME280;66287;42.658;27.568;2023-07-28T02:59:29;67877.22;;;-144.13;100.00
77250;BME280;66287;42.658;27.568;2023-07-28T03:01:55;67877.22;;;-144.13;100.00
77250;BME280;66287;42.658;27.568;2023-07-28T03:04:22;67877.22;;;-144.13;100.00
77250;BME280;66287;42.658;27.568;2023-07-28T03:07:14;67877.22;;;-144.13;100.00
77250;BME280;66287;42.658;27.568;2023-07-28T03:09:40;67877.22;;;-144.13;100.00
77250;BME280;66287;42.658;27.568;2023-07-28T03:12:06;67877.22;;;-144.13;100.00
77250;BME280;66287;42.658;27.568;2023-07-28T03:14:31;67877.22;;;-144.13;100.00
77250;BME280;66287;42.658;27.568;2023-07-28T03:16:57;67877.22;;;-144.13;100.00
77250;BME280;66287;42.658;27.568;2023-07-28T03:19:22;67877.22;;;-144.13;100.00
77250;BME280;66287;42.658;27.568;2023-07-28T03:21:48;67877.22;;;-144.13;100.00
77250;BME280;66287;42.658;27.568;2023-07-28T03:24:14;67877.22;;;-144.13;100.00
77250;BME280;66287;42.658;27.568;2023-07-28T03:26:39;67877.22;;;-144.13;100.00
77250;BME280;66287;42.658;27.568;2023-07-28T03:29:04;67877.22;;;-144.13;100.00
77250;BME280;66287;42.658;27.568;2023-07-28T03:31:30;67877.22;;;-144.13;100.00
77250;BME280;66287;42.658;27.568;2023-07-28T03:33:55;67877.22;;;-144.13;100.00
77250;BME280;66287;42.658;27.568;2023-07-28T03:36:23;67877.22;;;-144.13;100.00
77250;BME280;66287;42.658;27.568;2023-07-28T03:38:49;67877.22;;;-144.13;100.00
77250;BME280;66287;42.658;27.568;2023-07-28T03:41:14;67877.22;;;-144.13;100.00
77250;BME280;66287;42.658;27.568;2023-07-28T03:43:40;67877.22;;;-144.13;100.00
77250;BME280;66287;42.658;27.568;2023-07-28T03:46:06;67877.22;;;-144.13;100.00
77250;BME280;66287;42.658;27.568;2023-07-28T03:48:32;67877.22;;;-144.13;100.00
77250;BME280;66287;42.658;27.568;2023-07-28T03:50:58;67877.22;;;-144.13;100.00
77250;BME280;66287;42.658;27.568;2023-07-28T03:53:23;67877.22;;;-144.13;100.00
77250;BME280;66287;42.658;27.568;2023-07-28T03:55:49;67877.22;;;-144.13;100.00
77250;BME280;66287;42.658;27.568;2023-07-28T03:58:14;67877.22;;;-144.13;100.00
77250;BME280;66287;42.658;27.568;2023-07-28T04:00:40;67877.22;;;-144.13;100.00
77250;BME280;66287;42.658;27.568;2023-07-28T04:03:05;67877.22;;;-144.13;100.00
77250;BME280;66287;42.658;27.568;2023-07-28T04:05:30;67877.22;;;-144.13;100.00
77250;BME280;66287;42.658;27.568;2023-07-28T04:07:56;67877.22;;;-144.13;100.00
77250;BME280;66287;42.658;27.568;2023-07-28T04:10:21;67877.22;;;-144.13;100.00
77250;BME280;66287;42.658;27.568;2023-07-28T04:12:47;67877.22;;;-144.13;100.00
77250;BME280;66287;42.658;27.568;2023-07-28T04:15:12;67877.22;;;-144.13;100.00
77250;BME280;66287;42.658;27.568;2023-07-28T04:17:38;67877.22;;;-144.13;100.00
77250;BME280;66287;42.658;27.568;2023-07-28T04:20:03;67877.22;;;-144.13;100.00
77250;BME280;66287;42.658;27.568;2023-07-28T04:22:29;67877.22;;;-144.13;100.00
77250;BME280;66287;42.658;27.568;2023-07-28T04:24:55;67877.22;;;-144.13;100.00
77250;BME280;66287;42.658;27.568;2023-07-28T04:27:20;67877.22;;;-144.13;100.00
77250;BME280;66287;42.658;27.568;2023-07-28T04:29:47;67877.22;;;-144.13;100.00
77250;BME280;66287;42.658;27.568;2023-07-28T04:32:16;67877.22;;;-144.13;100.00
77250;BME280;66287;42.658;27.568;2023-07-28T04:34:42;67877.22;;;-144.13;100.00
77250;BME280;66287;42.658;27.568;2023-07-28T04:37:15;67877.22;;;-144.13;100.00
77250;BME280;66287;42.658;27.568;2023-07-28T04:39:58;67877.22;;;-144.13;100.00
77250;BME280;66287;42.658;27.568;2023-07-28T04:42:28;67877.22;;;-144.13;100.00
77250;BME280;66287;42.658;27.568;2023-07-28T04:44:54;67877.22;;;-144.13;100.00
77250;BME280;66287;42.658;27.568;2023-07-28T04:47:20;67877.22;;;-144.13;100.00
77250;BME280;66287;42.658;27.568;2023-07-28T04:49:46;67877.22;;;-144.13;100.00
77250;BME280;66287;42.658;27.568;2023-07-28T04:52:11;67877.22;;;-144.13;100.00
77250;BME280;66287;42.658;27.568;2023-07-28T04:54:45;67877.22;;;-144.13;100.00
77250;BME280;66287;42.658;27.568;2023-07-28T04:57:10;67877.22;;;-144.13;100.00
77250;BME280;66287;42.658;27.568;2023-07-28T04:59:38;67877.22;;;-144.13;100.00
77250;BME280;66287;42.658;27.568;2023-07-28T05:02:03;67877.22;;;-144.13;100.00
77250;BME280;66287;42.658;27.568;2023-07-28T05:04:29;67877.22;;;-144.13;100.00
77250;BME280;66287;42.658;27.568;2023-07-28T05:06:54;67877.22;;;-144.13;100.00
77250;BME280;66287;42.658;27.568;2023-07-28T05:09:20;67877.22;;;-144.13;100.00
77250;BME280;66287;42.658;27.568;2023-07-28T05:11:45;67877.22;;;-144.13;100.00
77250;BME280;66287;42.658;27.568;2023-07-28T05:14:11;67877.22;;;-144.13;100.00
77250;BME280;66287;42.658;27.568;2023-07-28T05:16:36;67877.22;;;-144.13;100.00
77250;BME280;66287;42.658;27.568;2023-07-28T05:19:19;67877.22;;;-144.13;100.00
77250;BME280;66287;42.658;27.568;2023-07-28T05:21:57;67877.22;;;-144.13;100.00
77250;BME280;66287;42.658;27.568;2023-07-28T05:24:31;67877.22;;;-144.13;100.00
77250;BME280;66287;42.658;27.568;2023-07-28T05:26:56;67877.22;;;-144.13;100.00
77250;BME280;66287;42.658;27.568;2023-07-28T05:29:22;67877.22;;;-144.13;100.00
77250;BME280;66287;42.658;27.568;2023-07-28T05:31:47;67877.22;;;-144.13;100.00
77250;BME280;66287;42.658;27.568;2023-07-28T05:34:24;67877.22;;;-144.13;100.00
77250;BME280;66287;42.658;27.568;2023-07-28T05:36:50;67877.22;;;-144.13;100.00
77250;BME280;66287;42.658;27.568;2023-07-28T05:39:15;67877.22;;;-144.13;100.00
77250;BME280;66287;42.658;27.568;2023-07-28T05:41:43;67877.22;;;-144.13;100.00
77250;BME280;66287;42.658;27.568;2023-07-28T05:44:11;67877.22;;;-144.13;100.00
77250;BME280;66287;42.658;27.568;2023-07-28T05:46:36;67877.22;;;-144.13;100.00
77250;BME280;66287;42.658;27.568;2023-07-28T05:49:02;67877.22;;;-144.13;100.00
77250;BME280;66287;42.658;27.568;2023-07-28T05:51:27;67877.22;;;-144.13;100.00
77250;BME280;66287;42.658;27.568;2023-07-28T05:53:54;67877.22;;;-144.13;100.00
77250;BME280;66287;42.658;27.568;2023-07-28T05:56:19;67877.22;;;-144.13;100.00
77250;BME280;66287;42.658;27.568;2023-07-28T05:58:48;67877.22;;;-144.13;100.00
77250;BME280;66287;42.658;27.568;2023-07-28T06:01:14;67877.22;;;-144.13;100.00
77250;BME280;66287;42.658;27.568;2023-07-28T06:03:58;67877.22;;;-144.13;100.00
77250;BME280;66287;42.658;27.568;2023-07-28T06:06:26;67877.22;;;-144.13;100.00
77250;BME280;66287;42.658;27.568;2023-07-28T06:08:52;67877.22;;;-144.13;100.00
77250;BME280;66287;42.658;27.568;2023-07-28T06:11:18;67877.22;;;-144.13;100.00
77250;BME280;66287;42.658;27.568;2023-07-28T06:13:43;67877.22;;;-144.13;100.00
77250;BME280;66287;42.658;27.568;2023-07-28T06:16:10;67877.22;;;-144.13;100.00
77250;BME280;66287;42.658;27.568;2023-07-28T06:18:36;67877.22;;;-144.13;100.00
77250;BME280;66287;42.658;27.568;2023-07-28T06:21:09;67877.22;;;-144.13;100.00
77250;BME280;66287;42.658;27.568;2023-07-28T06:23:35;67877.22;;;-144.13;100.00
77250;BME280;66287;42.658;27.568;2023-07-28T06:26:00;67877.22;;;-144.13;100.00
77250;BME280;66287;42.658;27.568;2023-07-28T06:28:26;67877.22;;;-144.13;100.00
77250;BME280;66287;42.658;27.568;2023-07-28T06:30:55;67877.22;;;-144.13;100.00
77250;BME280;66287;42.658;27.568;2023-07-28T06:33:22;67877.22;;;-144.13;100.00
77250;BME280;66287;42.658;27.568;2023-07-28T06:35:47;67877.22;;;-144.13;100.00
77250;BME280;66287;42.658;27.568;2023-07-28T06:38:13;67877.22;;;-144.13;100.00
77250;BME280;66287;42.658;27.568;2023-07-28T06:40:38;67877.22;;;-144.13;100.00
77250;BME280;66287;42.658;27.568;2023-07-28T06:43:04;67877.22;;;-144.13;100.00
77250;BME280;66287;42.658;27.568;2023-07-28T06:45:29;67877.22;;;-144.13;100.00
77250;BME280;66287;42.658;27.568;2023-07-28T06:47:55;67877.22;;;-144.13;100.00
77250;BME280;66287;42.658;27.568;2023-07-28T06:50:20;67877.22;;;-144.13;100.00
77250;BME280;66287;42.658;27.568;2023-07-28T06:52:46;67877.22;;;-144.13;100.00
77250;BME280;66287;42.658;27.568;2023-07-28T06:55:14;67877.22;;;-144.13;100.00
77250;BME280;66287;42.658;27.568;2023-07-28T06:57:39;67877.22;;;-144.13;100.00
77250;BME280;66287;42.658;27.568;2023-07-28T07:00:05;67877.22;;;-144.13;100.00
77250;BME280;66287;42.658;27.568;2023-07-28T07:02:31;67877.22;;;-144.13;100.00
77250;BME280;66287;42.658;27.568;2023-07-28T07:04:56;67877.22;;;-144.13;100.00
77250;BME280;66287;42.658;27.568;2023-07-28T07:07:22;67877.22;;;-144.13;100.00
77250;BME280;66287;42.658;27.568;2023-07-28T07:09:47;67877.22;;;-144.13;100.00
77250;BME280;66287;42.658;27.568;2023-07-28T07:12:13;100214.22;;;32.77;28.17
77250;BME280;66287;42.658;27.568;2023-07-28T07:14:39;100212.66;;;33.04;27.86
77250;BME280;66287;42.658;27.568;2023-07-28T07:17:04;100205.94;;;33.20;27.80
77250;BME280;66287;42.658;27.568;2023-07-28T07:19:29;100205.03;;;33.29;27.24
77250;BME280;66287;42.658;27.568;2023-07-28T07:21:55;100204.72;;;32.69;26.25
77250;BME280;66287;42.658;27.568;2023-07-28T07:24:21;100205.63;;;32.98;28.18
77250;BME280;66287;42.658;27.568;2023-07-28T07:26:46;100210.22;;;32.78;27.91
77250;BME280;66287;42.658;27.568;2023-07-28T07:29:11;100200.13;;;33.26;26.60
77250;BME280;66287;42.658;27.568;2023-07-28T07:31:37;67877.22;;;-144.13;100.00
77250;BME280;66287;42.658;27.568;2023-07-28T07:34:03;67877.22;;;-144.13;100.00
77250;BME280;66287;42.658;27.568;2023-07-28T07:36:29;67877.22;;;-144.13;100.00
77250;BME280;66287;42.658;27.568;2023-07-28T07:38:54;67877.22;;;-144.13;100.00
77250;BME280;66287;42.658;27.568;2023-07-28T07:41:21;100202.63;;;33.43;27.47
77250;BME280;66287;42.658;27.568;2023-07-28T07:43:47;100208.41;;;33.74;25.98
77250;BME280;66287;42.658;27.568;2023-07-28T07:46:14;100203.63;;;33.63;24.47
77250;BME280;66287;42.658;27.568;2023-07-28T07:48:40;100202.03;;;33.49;23.79
77250;BME280;66287;42.658;27.568;2023-07-28T07:51:06;100192.03;;;33.64;24.51
77250;BME280;66287;42.658;27.568;2023-07-28T07:53:32;100191.28;;;33.79;24.42
77250;BME280;66287;42.658;27.568;2023-07-28T07:55:57;100199.59;;;34.04;23.75
77250;BME280;66287;42.658;27.568;2023-07-28T07:58:23;100195.69;;;34.08;24.27
77250;BME280;66287;42.658;27.568;2023-07-28T08:00:48;100194.69;;;34.01;24.25
77250;BME280;66287;42.658;27.568;2023-07-28T08:03:14;100190.88;;;33.93;24.29
77250;BME280;66287;42.658;27.568;2023-07-28T08:05:39;100190.22;;;34.00;24.88
77250;BME280;66287;42.658;27.568;2023-07-28T08:08:05;100199.59;;;34.19;24.86
77250;BME280;66287;42.658;27.568;2023-07-28T08:10:32;100200.03;;;34.34;23.61
77250;BME280;66287;42.658;27.568;2023-07-28T08:12:58;100195.56;;;34.48;23.95
77250;BME280;66287;42.658;27.568;2023-07-28T08:15:24;100185.47;;;34.47;24.24
77250;BME280;66287;42.658;27.568;2023-07-28T08:17:50;100201.38;;;34.55;23.57
77250;BME280;66287;42.658;27.568;2023-07-28T08:20:16;100186.31;;;34.32;22.68
77250;BME280;66287;42.658;27.568;2023-07-28T08:22:41;100183.94;;;34.34;22.57
77250;BME280;66287;42.658;27.568;2023-07-28T08:25:07;100181.22;;;34.53;22.79
77250;BME280;66287;42.658;27.568;2023-07-28T08:27:33;100188.19;;;34.60;22.95
77250;BME280;66287;42.658;27.568;2023-07-28T08:29:58;100184.34;;;34.20;23.68
77250;BME280;66287;42.658;27.568;2023-07-28T08:32:24;100189.75;;;33.98;23.09
77250;BME280;66287;42.658;27.568;2023-07-28T08:34:49;100187.97;;;34.05;23.50
77250;BME280;66287;42.658;27.568;2023-07-28T08:37:15;100182.44;;;33.93;23.95
77250;BME280;66287;42.658;27.568;2023-07-28T08:39:40;100191.03;;;34.28;23.14
77250;BME280;66287;42.658;27.568;2023-07-28T08:42:05;100173.75;;;34.45;23.54
77250;BME280;66287;42.658;27.568;2023-07-28T08:44:31;100186.47;;;34.39;23.32
77250;BME280;66287;42.658;27.568;2023-07-28T08:46:57;100183.06;;;34.18;23.63
77250;BME280;66287;42.658;27.568;2023-07-28T08:49:23;100185.03;;;34.30;23.49
77250;BME280;66287;42.658;27.568;2023-07-28T08:51:49;100176.81;;;34.25;22.77
77250;BME280;66287;42.658;27.568;2023-07-28T08:54:15;100182.34;;;34.05;23.15
77250;BME280;66287;42.658;27.568;2023-07-28T08:56:42;100169.56;;;34.23;22.89
77250;BME280;66287;42.658;27.568;2023-07-28T08:59:08;100170.13;;;34.45;23.22
77250;BME280;66287;42.658;27.568;2023-07-28T09:01:38;100163.31;;;34.14;23.54
77250;BME280;66287;42.658;27.568;2023-07-28T09:04:06;100165.97;;;34.54;23.16
77250;BME280;66287;42.658;27.568;2023-07-28T09:06:34;100158.94;;;34.01;23.31
77250;BME280;66287;42.658;27.568;2023-07-28T09:08:59;100158.91;;;33.30;23.35
77250;BME280;66287;42.658;27.568;2023-07-28T09:11:25;100158.91;;;33.85;24.55
77250;BME280;66287;42.658;27.568;2023-07-28T09:13:53;100152.59;;;34.20;23.70
77250;BME280;66287;42.658;27.568;2023-07-28T09:16:19;100155.16;;;34.41;22.37
77250;BME280;66287;42.658;27.568;2023-07-28T09:18:45;100138.53;;;34.51;22.89
77250;BME280;66287;42.658;27.568;2023-07-28T09:21:19;100142.41;;;34.63;23.04
77250;BME280;66287;42.658;27.568;2023-07-28T09:23:49;100150.75;;;34.59;22.83
77250;BME280;66287;42.658;27.568;2023-07-28T09:26:15;100146.59;;;34.69;22.46
77250;BME280;66287;42.658;27.568;2023-07-28T09:28:40;100140.13;;;34.84;22.76
77250;BME280;66287;42.658;27.568;2023-07-28T09:31:06;100140.88;;;35.00;22.49
77250;BME280;66287;42.658;27.568;2023-07-28T09:33:33;100134.25;;;35.08;22.12
77250;BME280;66287;42.658;27.568;2023-07-28T09:38:52;100131.75;;;35.42;21.49
77250;BME280;66287;42.658;27.568;2023-07-28T09:41:18;100130.53;;;35.62;20.75
77250;BME280;66287;42.658;27.568;2023-07-28T09:43:45;100140.34;;;35.49;21.95
77250;BME280;66287;42.658;27.568;2023-07-28T09:46:13;100129.56;;;35.74;20.63
77250;BME280;66287;42.658;27.568;2023-07-28T09:48:43;100130.59;;;35.85;20.97
77250;BME280;66287;42.658;27.568;2023-07-28T09:51:11;100124.59;;;35.86;20.59
77250;BME280;66287;42.658;27.568;2023-07-28T09:53:40;100124.00;;;36.23;20.35
77250;BME280;66287;42.658;27.568;2023-07-28T09:56:07;100116.31;;;35.97;20.05
77250;BME280;66287;42.658;27.568;2023-07-28T09:58:33;100124.47;;;36.25;19.88
77250;BME280;66287;42.658;27.568;2023-07-28T10:01:03;100118.44;;;35.62;19.62
77250;BME280;66287;42.658;27.568;2023-07-28T10:03:31;100102.84;;;35.87;20.50
77250;BME280;66287;42.658;27.568;2023-07-28T10:05:57;100107.16;;;35.81;19.86
77250;BME280;66287;42.658;27.568;2023-07-28T10:08:22;100102.09;;;36.13;21.45
77250;BME280;66287;42.658;27.568;2023-07-28T10:10:48;100102.22;;;35.97;20.20
77250;BME280;66287;42.658;27.568;2023-07-28T10:13:20;100102.41;;;36.08;20.97
77250;BME280;66287;42.658;27.568;2023-07-28T10:15:46;100102.91;;;36.36;19.76
77250;BME280;66287;42.658;27.568;2023-07-28T10:18:13;100086.06;;;36.20;19.73
77250;BME280;66287;42.658;27.568;2023-07-28T10:20:38;100088.22;;;36.27;19.54
77250;BME280;66287;42.658;27.568;2023-07-28T10:23:05;100079.41;;;36.58;20.68
77250;BME280;66287;42.658;27.568;2023-07-28T10:25:35;100093.69;;;36.16;18.72
77250;BME280;66287;42.658;27.568;2023-07-28T10:28:01;100074.56;;;36.55;19.21
77250;BME280;66287;42.658;27.568;2023-07-28T10:30:27;100070.94;;;36.58;20.63
77250;BME280;66287;42.658;27.568;2023-07-28T10:32:53;100072.91;;;36.81;19.51
77250;BME280;66287;42.658;27.568;2023-07-28T10:35:23;100069.25;;;36.77;19.79
77250;BME280;66287;42.658;27.568;2023-07-28T10:37:50;100070.50;;;36.83;19.72
77250;BME280;66287;42.658;27.568;2023-07-28T10:40:22;100063.72;;;36.87;19.13
77250;BME280;66287;42.658;27.568;2023-07-28T10:42:48;100056.13;;;36.91;18.93
77250;BME280;66287;42.658;27.568;2023-07-28T10:45:13;100062.47;;;36.85;18.81
77250;BME280;66287;42.658;27.568;2023-07-28T10:47:40;100047.91;;;36.83;19.48
77250;BME280;66287;42.658;27.568;2023-07-28T10:50:08;100052.22;;;37.03;18.91
77250;BME280;66287;42.658;27.568;2023-07-28T10:52:34;100046.03;;;36.38;19.46
77250;BME280;66287;42.658;27.568;2023-07-28T10:54:59;100039.81;;;36.81;20.32
77250;BME280;66287;42.658;27.568;2023-07-28T10:57:24;100040.13;;;36.73;20.28
77250;BME280;66287;42.658;27.568;2023-07-28T10:59:51;100041.22;;;36.95;19.86
77250;BME280;66287;42.658;27.568;2023-07-28T11:02:17;100039.31;;;37.06;20.75
77250;BME280;66287;42.658;27.568;2023-07-28T11:04:45;100048.13;;;37.01;20.33
77250;BME280;66287;42.658;27.568;2023-07-28T11:07:12;100035.94;;;36.93;20.52
77250;BME280;66287;42.658;27.568;2023-07-28T11:09:38;100042.31;;;36.86;20.45
77250;BME280;66287;42.658;27.568;2023-07-28T11:12:04;100024.09;;;36.54;20.51
77250;BME280;66287;42.658;27.568;2023-07-28T11:14:29;100026.44;;;36.48;20.82
77250;BME280;66287;42.658;27.568;2023-07-28T11:16:55;100040.06;;;36.43;21.27
77250;BME280;66287;42.658;27.568;2023-07-28T11:19:20;100034.16;;;36.51;20.55
77250;BME280;66287;42.658;27.568;2023-07-28T11:21:49;100033.41;;;36.28;21.34
77250;BME280;66287;42.658;27.568;2023-07-28T11:24:20;100027.09;;;36.38;22.05
77250;BME280;66287;42.658;27.568;2023-07-28T11:26:45;100033.09;;;36.33;21.59
77250;BME280;66287;42.658;27.568;2023-07-28T11:29:11;100022.72;;;36.18;20.38
77250;BME280;66287;42.658;27.568;2023-07-28T11:31:36;100021.69;;;36.26;21.61
77250;BME280;66287;42.658;27.568;2023-07-28T11:34:02;100013.13;;;36.49;20.73
77250;BME280;66287;42.658;27.568;2023-07-28T11:36:28;100028.72;;;36.39;20.72
77250;BME280;66287;42.658;27.568;2023-07-28T11:38:55;100025.38;;;36.30;20.36
77250;BME280;66287;42.658;27.568;2023-07-28T11:41:21;100023.03;;;36.36;20.52
77250;BME280;66287;42.658;27.568;2023-07-28T11:43:47;100011.03;;;36.42;21.12
77250;BME280;66287;42.658;27.568;2023-07-28T11:49:13;100004.78;;;36.59;20.55
77250;BME280;66287;42.658;27.568;2023-07-28T11:51:46;100010.88;;;36.62;21.41
77250;BME280;66287;42.658;27.568;2023-07-28T11:54:12;100014.44;;;36.55;21.93
77250;BME280;66287;42.658;27.568;2023-07-28T11:56:40;100005.13;;;36.24;21.35
77250;BME280;66287;42.658;27.568;2023-07-28T11:59:05;100001.09;;;36.26;22.02
77250;BME280;66287;42.658;27.568;2023-07-28T12:01:31;100009.81;;;36.17;21.56
77250;BME280;66287;42.658;27.568;2023-07-28T12:03:56;100011.84;;;36.16;21.71
77250;BME280;66287;42.658;27.568;2023-07-28T12:06:24;100006.97;;;35.90;21.56
77250;BME280;66287;42.658;27.568;2023-07-28T12:08:49;100007.19;;;36.05;21.97
77250;BME280;66287;42.658;27.568;2023-07-28T12:11:15;100004.41;;;35.82;22.66
77250;BME280;66287;42.658;27.568;2023-07-28T12:13:51;100015.56;;;35.75;21.94
77250;BME280;66287;42.658;27.568;2023-07-28T12:19:01;100002.97;;;35.92;22.70
77250;BME280;66287;42.658;27.568;2023-07-28T12:21:26;99996.66;;;36.02;22.58
77250;BME280;66287;42.658;27.568;2023-07-28T12:23:52;99989.13;;;35.83;22.80
77250;BME280;66287;42.658;27.568;2023-07-28T12:26:17;100002.09;;;35.87;22.45
77250;BME280;66287;42.658;27.568;2023-07-28T12:28:42;99990.56;;;35.73;22.60
77250;BME280;66287;42.658;27.568;2023-07-28T12:31:08;99985.34;;;35.75;22.57
77250;BME280;66287;42.658;27.568;2023-07-28T12:33:33;99984.19;;;35.76;21.82